createdAt,value
2019-02-14T00:00:04.576Z,2.79
2019-02-14T00:02:52.079Z,2.68
2019-02-14T00:05:37.701Z,2.74
2019-02-14T00:08:23.548Z,2.63
2019-02-14T00:11:08.888Z,2.55
2019-02-14T00:13:54.273Z,2.79
2019-02-14T00:16:40.943Z,2.96
2019-02-14T00:19:26.714Z,2.61
2019-02-14T00:22:12.380Z,2.55
2019-02-14T00:24:58.284Z,2.70
2019-02-14T00:27:43.636Z,2.81
2019-02-14T00:30:29.514Z,2.97
2019-02-14T00:33:14.806Z,2.79
2019-02-14T00:36:00.187Z,2.49
2019-02-14T00:38:45.905Z,2.78
2019-02-14T00:41:31.589Z,2.35
2019-02-14T00:44:20.428Z,2.39
2019-02-14T00:47:06.113Z,2.58
2019-02-14T00:49:51.476Z,2.70
2019-02-14T00:52:36.948Z,2.55
2019-02-14T00:55:22.852Z,2.63
2019-02-14T00:58:08.482Z,2.49
2019-02-14T01:00:53.722Z,2.38
2019-02-14T01:03:39.512Z,2.45
2019-02-14T01:06:25.345Z,2.48
2019-02-14T01:09:10.832Z,2.42
2019-02-14T01:11:56.636Z,2.42
2019-02-14T01:14:42.034Z,2.37
2019-02-14T01:17:27.297Z,2.58
2019-02-14T01:20:12.917Z,2.62
2019-02-14T01:22:58.869Z,2.30
2019-02-14T01:25:44.251Z,2.19
2019-02-14T01:28:30.177Z,2.19
2019-02-14T01:31:16.449Z,2.35
2019-02-14T01:34:01.797Z,2.37
2019-02-14T01:36:48.641Z,2.46
2019-02-14T01:39:37.149Z,2.33
2019-02-14T01:42:22.575Z,2.27
2019-02-14T01:45:09.341Z,2.02
2019-02-14T01:47:55.123Z,1.92
2019-02-14T01:50:40.397Z,1.85
2019-02-14T01:53:26.342Z,1.97
2019-02-14T01:56:11.694Z,2.04
2019-02-14T01:58:57.168Z,2.17
2019-02-14T02:01:43.952Z,2.04
2019-02-14T02:04:29.645Z,2.16
2019-02-14T02:07:15.052Z,2.12
2019-02-14T02:10:03.138Z,1.95
2019-02-14T02:12:48.741Z,1.99
2019-02-14T02:15:34.465Z,2.12
2019-02-14T02:18:20.805Z,2.27
2019-02-14T02:21:06.385Z,2.20
2019-02-14T02:23:51.718Z,2.41
2019-02-14T02:26:37.385Z,2.39
2019-02-14T02:29:22.813Z,2.22
2019-02-14T02:32:08.175Z,2.07
2019-02-14T02:34:53.984Z,2.04
2019-02-14T02:37:39.914Z,1.98
2019-02-14T02:40:25.229Z,1.93
2019-02-14T02:43:11.117Z,1.84
2019-02-14T02:45:56.405Z,1.91
2019-02-14T02:48:41.823Z,2.01
2019-02-14T02:51:27.397Z,1.94
2019-02-14T02:54:13.337Z,2.13
2019-02-14T02:56:58.802Z,2.14
2019-02-14T02:59:44.493Z,2.18
2019-02-14T03:02:30.417Z,2.35
2019-02-14T03:05:15.883Z,2.42
2019-02-14T03:08:01.489Z,2.35
2019-02-14T03:10:47.478Z,1.60
2019-02-14T03:13:32.817Z,1.36
2019-02-14T03:16:18.637Z,1.38
2019-02-14T03:19:03.953Z,1.38
2019-02-14T03:21:49.360Z,1.27
2019-02-14T03:24:35.187Z,1.32
2019-02-14T03:27:20.945Z,1.39
2019-02-14T03:30:06.701Z,1.45
2019-02-14T03:32:52.516Z,1.46
2019-02-14T03:35:37.886Z,1.46
2019-02-14T03:38:23.344Z,1.46
2019-02-14T03:41:08.931Z,1.36
2019-02-14T03:43:55.010Z,1.27
2019-02-14T03:46:40.321Z,1.16
2019-02-14T03:49:25.998Z,1.16
2019-02-14T03:52:11.466Z,1.16
2019-02-14T03:54:56.861Z,1.47
2019-02-14T03:57:42.514Z,1.22
2019-02-14T04:00:28.147Z,0.96
2019-02-14T04:03:13.441Z,0.96
2019-02-14T04:05:59.477Z,0.82
2019-02-14T04:08:44.786Z,1.03
2019-02-14T04:11:30.182Z,1.75
2019-02-14T04:14:15.778Z,1.58
2019-02-14T04:17:03.743Z,1.58
2019-02-14T04:19:49.510Z,1.27
2019-02-14T04:22:35.173Z,1.55
2019-02-14T04:25:20.613Z,1.55
2019-02-14T04:28:06.148Z,1.57
2019-02-14T04:30:53.750Z,1.49
2019-02-14T04:33:39.914Z,1.53
2019-02-14T04:36:25.233Z,1.29
2019-02-14T04:39:10.820Z,1.29
2019-02-14T04:41:56.259Z,1.22
2019-02-14T04:44:41.661Z,1.16
2019-02-14T04:47:27.020Z,1.13
2019-02-14T04:50:12.257Z,1.38
2019-02-14T04:52:57.630Z,1.46
2019-02-14T04:55:43.388Z,1.46
2019-02-14T04:58:28.796Z,1.12
2019-02-14T05:01:14.190Z,0.99
2019-02-14T05:03:59.806Z,0.99
2019-02-14T05:06:46.098Z,0.88
2019-02-14T05:09:31.451Z,0.82
2019-02-14T05:12:16.774Z,0.81
2019-02-14T05:15:02.163Z,0.81
2019-02-14T05:17:48.395Z,0.75
2019-02-14T05:20:33.707Z,0.77
2019-02-14T05:23:19.450Z,0.84
2019-02-14T05:26:04.823Z,0.84
2019-02-14T05:28:50.218Z,0.86
2019-02-14T05:31:37.571Z,0.66
2019-02-14T05:34:23.518Z,0.66
2019-02-14T05:37:08.927Z,0.58
2019-02-14T05:39:54.602Z,0.69
2019-02-14T05:42:39.963Z,0.67
2019-02-14T05:45:25.609Z,0.51
2019-02-14T05:48:11.510Z,0.51
2019-02-14T05:50:56.943Z,0.56
2019-02-14T05:53:42.358Z,0.65
2019-02-14T05:56:28.178Z,0.64
2019-02-14T05:59:13.597Z,0.46
2019-02-14T06:02:01.402Z,0.41
2019-02-14T06:04:47.743Z,0.45
2019-02-14T06:07:33.438Z,0.29
2019-02-14T06:10:18.761Z,0.22
2019-02-14T06:13:05.129Z,0.38
2019-02-14T06:15:50.449Z,0.17
2019-02-14T06:18:41.862Z,0.17
2019-02-14T06:21:33.362Z,0.09
2019-02-14T06:24:19.103Z,0.07
2019-02-14T06:27:04.476Z,0.17
2019-02-14T06:29:52.999Z,0.31
2019-02-14T06:32:38.392Z,0.53
2019-02-14T06:35:23.739Z,0.53
2019-02-14T06:38:09.123Z,0.64
2019-02-14T06:40:54.646Z,0.66
2019-02-14T06:43:39.996Z,0.69
2019-02-14T06:46:25.818Z,0.89
2019-02-14T06:49:11.201Z,0.93
2019-02-14T06:51:56.631Z,0.97
2019-02-14T06:54:42.067Z,1.00
2019-02-14T06:57:27.534Z,1.26
2019-02-14T07:00:13.944Z,1.26
2019-02-14T07:02:59.314Z,1.33
2019-02-14T07:05:44.771Z,1.16
2019-02-14T07:08:30.564Z,1.16
2019-02-14T07:11:16.340Z,1.11
2019-02-14T07:14:01.971Z,1.28
2019-02-14T07:16:47.349Z,1.28
2019-02-14T07:19:33.394Z,1.46
2019-02-14T07:22:18.790Z,1.46
2019-02-14T07:25:04.550Z,1.43
2019-02-14T07:27:50.647Z,1.47
2019-02-14T07:30:36.013Z,1.47
2019-02-14T07:33:21.391Z,1.86
2019-02-14T07:36:07.122Z,2.26
2019-02-14T07:38:52.462Z,2.98
2019-02-14T07:41:37.906Z,3.25
2019-02-14T07:44:23.741Z,3.39
2019-02-14T07:47:09.153Z,3.44
2019-02-14T07:49:54.621Z,3.48
2019-02-14T07:52:40.194Z,3.70
2019-02-14T07:55:25.587Z,3.80
2019-02-14T07:58:11.034Z,3.96
2019-02-14T08:00:57.050Z,4.05
2019-02-14T08:03:42.794Z,4.29
2019-02-14T08:06:28.138Z,4.53
2019-02-14T08:09:13.731Z,5.24
2019-02-14T08:11:59.056Z,5.12
2019-02-14T08:14:44.846Z,4.73
2019-02-14T08:17:30.810Z,4.98
2019-02-14T08:20:16.219Z,4.75
2019-02-14T08:23:02.074Z,4.57
2019-02-14T08:25:47.682Z,4.70
2019-02-14T08:28:33.477Z,4.53
2019-02-14T08:31:19.031Z,4.31
2019-02-14T08:34:04.330Z,4.48
2019-02-14T08:36:49.968Z,4.36
2019-02-14T08:39:35.436Z,4.54
2019-02-14T08:42:21.066Z,4.46
2019-02-14T08:45:07.902Z,4.66
2019-02-14T08:47:53.511Z,4.80
2019-02-14T08:50:38.940Z,4.65
2019-02-14T08:53:24.310Z,6.64
2019-02-14T08:56:09.707Z,8.46
2019-02-14T08:58:55.262Z,8.83
2019-02-14T09:01:41.482Z,10.03
2019-02-14T09:04:29.898Z,9.94
2019-02-14T09:07:15.334Z,10.55
2019-02-14T09:10:01.143Z,9.88
2019-02-14T09:12:46.552Z,7.74
2019-02-14T09:15:31.967Z,8.01
2019-02-14T09:18:17.635Z,8.14
2019-02-14T09:21:03.190Z,8.11
2019-02-14T09:23:48.523Z,7.43
2019-02-14T09:26:34.263Z,7.22
2019-02-14T09:29:19.887Z,7.17
2019-02-14T09:32:05.486Z,6.81
2019-02-14T09:34:50.865Z,7.06
2019-02-14T09:37:36.292Z,7.66
2019-02-14T09:40:21.678Z,7.21
2019-02-14T09:43:07.023Z,7.10
2019-02-14T09:45:52.819Z,7.36
2019-02-14T09:48:38.378Z,7.23
2019-02-14T09:51:23.673Z,7.94
2019-02-14T09:54:09.093Z,7.78
2019-02-14T09:56:54.402Z,8.54
2019-02-14T09:59:40.230Z,8.89
2019-02-14T10:02:25.939Z,10.15
2019-02-14T10:05:11.662Z,10.14
2019-02-14T10:07:57.037Z,9.27
2019-02-14T10:10:42.575Z,8.58
2019-02-14T10:13:28.390Z,8.87
2019-02-14T10:16:13.762Z,10.11
2019-02-14T10:18:59.079Z,9.61
2019-02-14T10:21:44.587Z,9.80
2019-02-14T10:24:30.348Z,10.94
2019-02-14T10:27:15.731Z,12.47
2019-02-14T10:30:01.142Z,11.75
2019-02-14T10:32:46.483Z,11.69
2019-02-14T10:35:31.962Z,12.27
2019-02-14T10:38:22.324Z,11.51
2019-02-14T10:41:04.815Z,11.84
2019-02-14T10:43:50.338Z,12.55
2019-02-14T10:46:36.112Z,11.88
2019-02-14T10:49:21.555Z,11.90
2019-02-14T10:52:06.989Z,12.88
2019-02-14T10:54:52.703Z,11.89
2019-02-14T10:57:38.375Z,12.94
2019-02-14T11:00:23.897Z,12.73
2019-02-14T11:03:09.591Z,12.90
2019-02-14T11:05:54.931Z,13.51
2019-02-14T11:08:41.313Z,14.73
2019-02-14T11:11:26.871Z,12.62
2019-02-14T11:14:12.175Z,13.71
2019-02-14T11:16:57.655Z,13.63
2019-02-14T11:19:42.935Z,13.81
2019-02-14T11:22:28.344Z,13.94
2019-02-14T11:25:18.763Z,13.86
2019-02-14T11:28:05.035Z,12.85
2019-02-14T11:30:51.504Z,13.43
2019-02-14T11:33:37.252Z,13.24
2019-02-14T11:36:22.571Z,14.12
2019-02-14T11:39:09.180Z,15.80
2019-02-14T11:41:54.856Z,14.89
2019-02-14T11:44:40.284Z,13.14
2019-02-14T11:47:26.036Z,13.07
2019-02-14T11:50:11.575Z,13.38
2019-02-14T11:52:57.257Z,13.12
2019-02-14T11:55:42.752Z,13.52
2019-02-14T11:58:28.031Z,15.15
2019-02-14T12:01:13.540Z,14.58
2019-02-14T12:03:58.854Z,15.36
2019-02-14T12:06:44.710Z,16.41
2019-02-14T12:09:30.120Z,16.36
2019-02-14T12:12:15.924Z,16.46
2019-02-14T12:15:01.324Z,17.18
2019-02-14T12:17:46.887Z,15.53
2019-02-14T12:20:32.699Z,16.62
2019-02-14T12:23:18.040Z,16.54
2019-02-14T12:26:05.593Z,15.65
2019-02-14T12:28:51.056Z,16.15
2019-02-14T12:31:36.732Z,16.15
2019-02-14T12:34:22.163Z,16.51
2019-02-14T12:37:12.357Z,14.10
2019-02-14T12:39:58.435Z,14.77
2019-02-14T12:42:44.344Z,14.21
2019-02-14T12:45:29.751Z,15.29
2019-02-14T12:48:16.168Z,14.76
2019-02-14T12:51:01.508Z,15.13
2019-02-14T12:53:46.914Z,16.44
2019-02-14T12:56:32.351Z,16.08
2019-02-14T12:59:17.767Z,16.15
2019-02-14T13:02:03.126Z,16.52
2019-02-14T13:04:48.462Z,16.39
2019-02-14T13:07:34.514Z,17.26
2019-02-14T13:10:22.387Z,17.25
2019-02-14T13:13:08.818Z,17.93
2019-02-14T13:15:54.480Z,17.78
2019-02-14T13:18:39.810Z,17.61
2019-02-14T13:21:25.290Z,18.35
2019-02-14T13:24:12.119Z,17.92
2019-02-14T13:26:57.642Z,16.39
2019-02-14T13:29:43.518Z,16.41
2019-02-14T13:32:29.386Z,16.42
2019-02-14T13:35:14.861Z,15.91
2019-02-14T13:38:00.550Z,16.04
2019-02-14T13:40:46.098Z,16.09
2019-02-14T13:43:31.886Z,15.76
2019-02-14T13:46:17.597Z,16.20
2019-02-14T13:49:03.206Z,16.74
2019-02-14T13:51:48.615Z,17.24
2019-02-14T13:54:33.983Z,17.51
2019-02-14T13:57:19.444Z,16.37
2019-02-14T14:00:07.793Z,15.63
2019-02-14T14:02:53.284Z,16.81
2019-02-14T14:05:39.030Z,17.30
2019-02-14T14:08:24.414Z,15.56
2019-02-14T14:11:09.841Z,17.44
2019-02-14T14:13:55.715Z,15.76
2019-02-14T14:16:41.080Z,16.98
2019-02-14T14:19:28.928Z,17.00
2019-02-14T14:22:14.158Z,15.90
2019-02-14T14:24:59.781Z,16.55
2019-02-14T14:27:45.120Z,17.35
2019-02-14T14:30:30.907Z,15.28
2019-02-14T14:33:16.549Z,15.95
2019-02-14T14:36:01.901Z,17.39
2019-02-14T14:38:47.805Z,16.84
2019-02-14T14:41:33.633Z,16.20
2019-02-14T14:44:28.485Z,17.94
2019-02-14T14:47:16.674Z,18.89
2019-02-14T14:50:02.262Z,17.20
2019-02-14T14:52:48.138Z,17.84
2019-02-14T14:55:35.463Z,16.74
2019-02-14T14:58:21.173Z,17.04
2019-02-14T15:01:06.531Z,16.70
2019-02-14T15:03:52.346Z,16.45
2019-02-14T15:06:38.229Z,15.25
2019-02-14T15:09:23.634Z,14.63
2019-02-14T15:12:10.374Z,14.10
2019-02-14T15:14:56.530Z,13.32
2019-02-14T15:17:41.966Z,13.49
2019-02-14T15:20:29.868Z,13.43
2019-02-14T15:23:15.608Z,13.00
2019-02-14T15:26:00.998Z,12.44
2019-02-14T15:28:46.402Z,12.26
2019-02-14T15:31:31.766Z,12.25
2019-02-14T15:34:17.080Z,12.24
2019-02-14T15:37:02.680Z,12.04
2019-02-14T15:39:49.276Z,11.93
2019-02-14T15:42:34.942Z,11.78
2019-02-14T15:45:20.267Z,11.68
2019-02-14T15:48:05.689Z,11.60
2019-02-14T15:50:51.840Z,11.52
2019-02-14T15:53:41.162Z,11.37
2019-02-14T15:56:27.344Z,11.25
2019-02-14T15:59:14.054Z,11.11
2019-02-14T16:01:59.414Z,11.05
2019-02-14T16:04:45.988Z,10.97
2019-02-14T16:07:32.299Z,10.80
2019-02-14T16:10:18.893Z,10.68
2019-02-14T16:13:05.816Z,10.56
2019-02-14T16:15:58.841Z,10.48
2019-02-14T16:18:46.563Z,10.35
2019-02-14T16:21:32.402Z,9.97
2019-02-14T16:24:18.558Z,9.82
2019-02-14T16:27:04.515Z,9.73
2019-02-14T16:29:50.923Z,9.39
2019-02-14T16:32:36.834Z,9.21
2019-02-14T16:35:23.857Z,8.84
2019-02-14T16:38:11.795Z,8.64
2019-02-14T16:40:57.413Z,8.64
2019-02-14T16:43:42.875Z,8.27
2019-02-14T16:46:28.662Z,8.12
2019-02-14T16:49:14.155Z,8.16
2019-02-14T16:51:59.597Z,8.15
2019-02-14T16:54:44.940Z,8.10
2019-02-14T16:57:30.375Z,7.56
2019-02-14T17:00:16.134Z,7.48
2019-02-14T17:03:01.583Z,7.42
2019-02-14T17:05:47.025Z,7.41
2019-02-14T17:08:33.201Z,7.19
2019-02-14T17:11:18.879Z,7.22
2019-02-14T17:14:07.209Z,7.15
2019-02-14T17:16:54.193Z,7.10
2019-02-14T17:19:39.785Z,6.90
2019-02-14T17:22:27.611Z,6.73
2019-02-14T17:25:13.167Z,6.86
2019-02-14T17:27:58.555Z,6.75
2019-02-14T17:30:43.815Z,6.87
2019-02-14T17:33:29.370Z,6.89
2019-02-14T17:36:14.643Z,6.81
2019-02-14T17:39:04.734Z,6.84
2019-02-14T17:41:50.495Z,6.54
2019-02-14T17:44:36.271Z,6.36
2019-02-14T17:47:21.655Z,6.25
2019-02-14T17:50:07.807Z,6.40
2019-02-14T17:52:53.667Z,6.36
2019-02-14T17:55:40.347Z,6.21
2019-02-14T17:58:26.583Z,6.10
2019-02-14T18:01:12.012Z,5.98
2019-02-14T18:03:57.935Z,5.94
2019-02-14T18:06:43.894Z,5.95
2019-02-14T18:09:29.295Z,5.94
2019-02-14T18:12:14.683Z,5.86
2019-02-14T18:15:00.491Z,5.76
2019-02-14T18:17:46.008Z,5.76
2019-02-14T18:20:31.327Z,5.78
2019-02-14T18:23:17.005Z,5.79
2019-02-14T18:26:02.310Z,5.67
2019-02-14T18:28:47.759Z,5.47
2019-02-14T18:31:33.223Z,5.58
2019-02-14T18:34:19.091Z,5.70
2019-02-14T18:37:04.425Z,5.61
2019-02-14T18:39:52.052Z,5.72
2019-02-14T18:42:38.547Z,5.69
2019-02-14T18:45:24.131Z,5.82
2019-02-14T18:48:10.932Z,6.03
2019-02-14T18:50:57.603Z,6.14
2019-02-14T18:53:43.447Z,6.20
2019-02-14T18:56:28.871Z,6.21
2019-02-14T18:59:14.207Z,6.22
2019-02-14T19:01:59.794Z,6.19
2019-02-14T19:04:45.825Z,6.08
2019-02-14T19:07:31.733Z,6.06
2019-02-14T19:10:17.150Z,6.13
2019-02-14T19:13:03.521Z,6.13
2019-02-14T19:15:49.342Z,6.17
2019-02-14T19:18:35.871Z,6.02
2019-02-14T19:21:21.755Z,6.01
2019-02-14T19:24:07.863Z,5.91
2019-02-14T19:26:53.211Z,5.61
2019-02-14T19:29:38.788Z,5.35
2019-02-14T19:32:24.176Z,5.43
2019-02-14T19:35:09.648Z,5.79
2019-02-14T19:37:57.230Z,5.88
2019-02-14T19:40:42.880Z,6.00
2019-02-14T19:43:28.331Z,5.82
2019-02-14T19:46:14.348Z,5.62
2019-02-14T19:49:03.787Z,5.50
2019-02-14T19:51:49.107Z,5.88
2019-02-14T19:54:34.369Z,6.11
2019-02-14T19:57:20.203Z,6.12
2019-02-14T20:00:07.467Z,5.93
2019-02-14T20:02:54.884Z,5.88
2019-02-14T20:05:43.328Z,5.70
2019-02-14T20:08:28.985Z,5.45
2019-02-14T20:11:17.929Z,5.30
2019-02-14T20:14:04.030Z,5.16
2019-02-14T20:16:49.660Z,5.18
2019-02-14T20:19:35.564Z,4.93
2019-02-14T20:22:22.744Z,5.06
2019-02-14T20:25:09.906Z,5.34
2019-02-14T20:27:55.324Z,5.52
2019-02-14T20:30:48.123Z,5.40
2019-02-14T20:33:43.404Z,5.09
2019-02-14T20:36:35.124Z,5.00
2019-02-14T20:39:26.845Z,5.08
2019-02-14T20:42:17.505Z,4.98
2019-02-14T20:45:03.367Z,4.76
2019-02-14T20:47:48.716Z,4.59
2019-02-14T20:50:37.179Z,4.65
2019-02-14T20:53:22.706Z,4.95
2019-02-14T20:56:11.987Z,4.99
2019-02-14T20:58:58.078Z,5.08
2019-02-14T21:01:43.748Z,5.02
2019-02-14T21:04:29.640Z,5.04
2019-02-14T21:07:15.375Z,4.95
2019-02-14T21:10:01.406Z,4.91
2019-02-14T21:12:46.723Z,5.05
2019-02-14T21:22:17.761Z,5.12
2019-02-14T21:24:54.528Z,5.09
2019-02-14T21:27:40.163Z,4.91
2019-02-14T21:36:52.044Z,5.02
2019-02-14T21:39:37.478Z,4.83
2019-02-14T21:42:28.919Z,4.61
2019-02-14T21:45:11.164Z,4.48
2019-02-14T21:47:57.109Z,4.47
2019-02-14T21:50:43.009Z,4.40
2019-02-14T21:53:28.623Z,4.17
2019-02-14T21:56:14.146Z,4.13
2019-02-14T21:58:59.513Z,3.90
2019-02-14T22:01:44.861Z,4.12
2019-02-14T22:04:32.181Z,4.00
2019-02-14T22:09:58.996Z,3.75
2019-02-14T22:12:44.698Z,3.74
2019-02-14T22:15:30.875Z,3.79
2019-02-14T22:18:16.123Z,3.59
2019-02-14T22:21:01.968Z,3.46
2019-02-14T22:23:47.779Z,3.79
2019-02-14T22:26:34.151Z,3.84
2019-02-14T22:29:19.918Z,3.65
2019-02-14T22:32:05.282Z,3.53
2019-02-14T22:34:50.667Z,3.75
2019-02-14T22:37:37.392Z,3.85
2019-02-14T22:40:23.280Z,3.79
2019-02-14T22:43:11.294Z,3.84
2019-02-14T22:45:57.294Z,3.88
2019-02-14T22:48:44.001Z,3.89
2019-02-14T22:51:29.714Z,3.94
2019-02-14T22:54:15.454Z,3.90
2019-02-14T22:57:00.937Z,3.73
2019-02-14T22:59:46.469Z,3.70
2019-02-14T23:05:30.006Z,3.67
2019-02-14T23:08:16.325Z,3.57
2019-02-14T23:11:02.583Z,3.60
2019-02-14T23:13:48.650Z,3.53
2019-02-14T23:16:34.630Z,3.50
2019-02-14T23:19:26.852Z,3.44
2019-02-14T23:22:13.371Z,3.39
2019-02-14T23:24:59.637Z,3.27
2019-02-14T23:27:46.949Z,3.27
2019-02-14T23:30:33.051Z,2.97
2019-02-14T23:33:19.044Z,2.92
2019-02-14T23:36:08.716Z,2.78
2019-02-14T23:38:58.083Z,2.78
2019-02-14T23:41:44.404Z,2.77
2019-02-14T23:44:30.651Z,2.78
2019-02-14T23:47:16.806Z,2.69
2019-02-14T23:50:05.462Z,2.68
2019-02-14T23:52:51.826Z,2.28
2019-02-14T23:55:37.844Z,2.20
2019-02-14T23:58:23.937Z,2.34
